Time;durP1;ratioP1;P1;durP2;ratioP2;P2;SDS_P1;SDS_P2;PMS_P1;PMS_P2;Temp;Humidity;BMP_temperature;BMP_pressure;BME280_temperature;BME280_humidity;BME280_pressure;Samples;Min_cycle;Max_cycle;Signal;HPM_P1;HPM_P2
2023/06/04 00:00:22;;;;;;;3.55;2.00;;;;;;;10.53;100.00;101202.00;6236024;28;20128;-92
2023/06/04 00:03:23;;;;;;;4.70;2.38;;;;;;;10.51;100.00;101203.88;6269700;28;20092;-92
2023/06/04 00:06:26;;;;;;;3.72;2.30;;;;;;;10.47;100.00;101203.25;6254252;28;20119;-92
2023/06/04 00:09:28;;;;;;;4.20;2.30;;;;;;;10.44;100.00;101200.88;6245855;28;20491;-92
2023/06/04 00:12:30;;;;;;;2.30;1.88;;;;;;;10.40;100.00;101201.19;6247292;28;20048;-92
2023/06/04 00:15:31;;;;;;;3.38;1.98;;;;;;;10.33;100.00;101201.59;6250493;28;20041;-92
2023/06/04 00:18:33;;;;;;;2.97;2.05;;;;;;;10.33;100.00;101198.16;6240555;28;20491;-92
2023/06/04 00:21:37;;;;;;;2.15;1.80;;;;;;;10.33;100.00;101195.59;6246354;28;20494;-92
2023/06/04 00:24:42;;;;;;;2.85;1.85;;;;;;;10.31;100.00;101200.03;6245761;28;20060;-92
2023/06/04 00:27:43;;;;;;;2.80;2.20;;;;;;;10.30;100.00;101200.97;6240917;28;20042;-92
2023/06/04 00:30:45;;;;;;;3.53;2.15;;;;;;;10.27;100.00;101195.97;6227825;28;20045;-93
2023/06/04 00:33:48;;;;;;;2.92;1.88;;;;;;;10.21;100.00;101193.78;6254124;28;20053;-92
2023/06/04 00:36:49;;;;;;;3.30;2.10;;;;;;;10.15;100.00;101197.59;6245903;28;20410;-92
2023/06/04 00:39:51;;;;;;;2.50;1.77;;;;;;;10.12;100.00;101196.06;6228347;28;20041;-93
2023/06/04 00:42:55;;;;;;;3.22;1.90;;;;;;;10.08;100.00;101191.19;6227389;28;20050;-92
2023/06/04 00:45:57;;;;;;;3.35;1.90;;;;;;;10.05;100.00;101189.63;6218467;28;20037;-92
2023/06/04 00:48:59;;;;;;;4.25;2.00;;;;;;;10.01;100.00;101195.09;6225364;28;20045;-92
2023/06/04 00:52:01;;;;;;;2.45;1.98;;;;;;;9.98;100.00;101201.31;6248116;28;20040;-92
2023/06/04 00:55:03;;;;;;;2.42;1.80;;;;;;;9.96;100.00;101197.97;6241807;28;20042;-92
2023/06/04 00:58:05;;;;;;;2.78;2.05;;;;;;;9.95;100.00;101195.53;6224920;28;20514;-92
2023/06/04 01:01:20;;;;;;;4.20;1.90;;;;;;;9.94;100.00;101194.69;6241768;28;20747;-92
2023/06/04 01:04:44;;;;;;;3.38;1.77;;;;;;;9.96;100.00;101194.56;6249543;28;20038;-92
2023/06/04 01:07:46;;;;;;;2.72;1.80;;;;;;;9.91;100.00;101189.69;6244035;28;20088;-92
2023/06/04 01:10:55;;;;;;;4.50;2.10;;;;;;;9.90;100.00;101188.88;6246599;28;20401;-92
2023/06/04 01:13:58;;;;;;;3.20;2.17;;;;;;;9.91;100.00;101189.69;6243306;28;20499;-92
2023/06/04 01:17:04;;;;;;;2.88;1.90;;;;;;;9.90;100.00;101188.06;6260231;28;20076;-92
2023/06/04 01:20:24;;;;;;;4.45;1.90;;;;;;;9.88;100.00;101190.72;6242396;28;20419;-92
2023/06/04 01:23:36;;;;;;;2.35;1.80;;;;;;;9.86;100.00;101187.44;6237064;28;20395;-92
2023/06/04 01:26:38;;;;;;;2.42;1.92;;;;;;;9.84;100.00;101176.38;6242234;28;20040;-92
2023/06/04 01:29:40;;;;;;;3.65;1.92;;;;;;;9.82;100.00;101177.41;6239921;28;20052;-92
2023/06/04 01:32:42;;;;;;;2.80;1.95;;;;;;;9.80;100.00;101176.66;6245366;28;20543;-92
2023/06/04 01:35:45;;;;;;;3.10;2.20;;;;;;;9.78;100.00;101175.94;6226058;28;20050;-92
2023/06/04 01:38:46;;;;;;;2.03;1.77;;;;;;;9.75;100.00;101171.78;6227353;28;20057;-92
2023/06/04 01:41:48;;;;;;;2.42;1.83;;;;;;;9.73;100.00;101180.56;6242719;28;20052;-92
2023/06/04 01:44:50;;;;;;;4.03;2.20;;;;;;;9.69;100.00;101175.59;6248116;28;20517;-93
2023/06/04 01:47:53;;;;;;;3.38;1.65;;;;;;;9.63;100.00;101182.91;6251412;28;20131;-92
2023/06/04 01:50:56;;;;;;;3.25;1.95;;;;;;;9.59;100.00;101178.88;6244681;28;20487;-92
2023/06/04 01:54:00;;;;;;;3.22;2.17;;;;;;;9.58;100.00;101172.88;6245627;28;20106;-92
2023/06/04 01:57:03;;;;;;;2.67;1.90;;;;;;;9.53;100.00;101177.50;6258583;28;20397;-92
2023/06/04 02:00:12;;;;;;;3.92;2.10;;;;;;;9.48;100.00;101184.72;6251519;28;20531;-92
2023/06/04 02:03:15;;;;;;;2.05;1.80;;;;;;;9.45;100.00;101190.09;6256788;28;20096;-92
2023/06/04 02:06:18;;;;;;;3.00;1.90;;;;;;;9.40;100.00;101185.22;6240735;28;20507;-92
2023/06/04 02:09:20;;;;;;;2.17;1.80;;;;;;;9.35;100.00;101184.69;6243923;28;20049;-92
2023/06/04 02:12:22;;;;;;;4.65;1.90;;;;;;;9.30;100.00;101178.97;6247545;28;20069;-92
2023/06/04 02:15:26;;;;;;;3.13;2.08;;;;;;;9.25;100.00;101184.44;6264800;28;20071;-92
2023/06/04 02:18:29;;;;;;;2.75;1.98;;;;;;;9.23;100.00;101182.88;6266756;28;20168;-92
2023/06/04 02:21:31;;;;;;;3.38;1.98;;;;;;;9.22;100.00;101184.63;6252886;28;20029;-92
2023/06/04 02:24:33;;;;;;;3.58;1.85;;;;;;;9.19;100.00;101178.81;6253526;28;20090;-92
2023/06/04 02:27:35;;;;;;;2.75;1.90;;;;;;;9.15;100.00;101185.94;6236384;28;20592;-92
2023/06/04 02:30:37;;;;;;;3.08;2.00;;;;;;;9.11;100.00;101179.28;6246443;28;20148;-92
2023/06/04 02:33:39;;;;;;;3.60;1.75;;;;;;;9.09;100.00;101175.97;6246678;28;20491;-92
2023/06/04 02:36:40;;;;;;;3.38;2.10;;;;;;;9.09;100.00;101173.38;6227421;28;20048;-92
2023/06/04 02:39:42;;;;;;;1.80;1.50;;;;;;;9.07;100.00;101175.25;6236897;28;20045;-92
2023/06/04 02:42:44;;;;;;;3.67;2.08;;;;;;;9.02;100.00;101175.53;6247851;28;20037;-92
2023/06/04 02:45:45;;;;;;;1.52;1.40;;;;;;;8.99;100.00;101182.63;6246014;28;20252;-92
2023/06/04 02:48:47;;;;;;;2.72;1.73;;;;;;;8.96;100.00;101195.75;6244659;28;20040;-91
2023/06/04 02:51:49;;;;;;;3.05;1.77;;;;;;;8.90;100.00;101194.38;6245491;28;20042;-92
2023/06/04 02:54:51;;;;;;;3.45;1.85;;;;;;;8.95;100.00;101191.50;6249339;28;20493;-92
2023/06/04 02:57:53;;;;;;;2.58;1.83;;;;;;;8.96;100.00;101195.75;6240126;28;20518;-92
2023/06/04 03:00:55;;;;;;;2.63;1.45;;;;;;;8.94;100.00;101195.81;6242976;28;20041;-92
2023/06/04 03:03:57;;;;;;;2.35;1.92;;;;;;;8.91;100.00;101202.94;6252079;28;20087;-92
2023/06/04 03:06:59;;;;;;;2.33;1.92;;;;;;;8.90;100.00;101199.53;6248224;28;20034;-92
2023/06/04 03:10:01;;;;;;;1.95;1.80;;;;;;;8.89;100.00;101203.03;6249278;28;20510;-92
2023/06/04 03:13:05;;;;;;;3.25;1.98;;;;;;;8.88;100.00;101203.13;6244342;28;20036;-92
2023/06/04 03:16:09;;;;;;;3.63;1.85;;;;;;;8.88;100.00;101200.56;6260981;28;20768;-92
2023/06/04 03:19:11;;;;;;;3.65;1.75;;;;;;;8.88;100.00;101203.97;6247679;28;20055;-92
2023/06/04 03:22:13;;;;;;;3.20;2.00;;;;;;;8.89;100.00;101205.59;6247587;28;20479;-92
2023/06/04 03:25:15;;;;;;;2.40;1.90;;;;;;;8.91;100.00;101200.34;6239931;28;20123;-92
2023/06/04 03:28:21;;;;;;;2.47;1.85;;;;;;;8.91;100.00;101203.75;6241900;28;20049;-92
2023/06/04 03:31:23;;;;;;;2.60;1.85;;;;;;;8.94;100.00;101202.75;6248247;28;20570;-91
2023/06/04 03:34:25;;;;;;;4.65;1.77;;;;;;;8.95;100.00;101199.25;6255003;28;20057;-92
2023/06/04 03:37:27;;;;;;;2.13;1.77;;;;;;;8.99;100.00;101203.28;6230495;28;20060;-92
2023/06/04 03:40:29;;;;;;;4.43;1.88;;;;;;;8.94;100.00;101207.91;6243199;28;20075;-92
2023/06/04 03:43:31;;;;;;;2.95;2.17;;;;;;;8.97;100.00;101197.41;6249763;28;20055;-92
2023/06/04 03:46:37;;;;;;;1.88;1.60;;;;;;;8.97;100.00;101207.75;6244443;28;20045;-92
2023/06/04 03:49:39;;;;;;;3.25;1.80;;;;;;;8.98;100.00;101209.38;6243057;28;20043;-92
2023/06/04 03:52:41;;;;;;;2.88;2.00;;;;;;;8.97;100.00;101205.16;6246275;28;20045;-92
2023/06/04 03:55:43;;;;;;;3.92;2.50;;;;;;;8.95;100.00;101202.66;6248313;28;20415;-92
2023/06/04 03:58:46;;;;;;;2.45;1.77;;;;;;;8.97;100.00;101207.75;6246372;28;20049;-92
2023/06/04 04:01:49;;;;;;;2.75;1.80;;;;;;;9.04;100.00;101203.84;6235430;28;20041;-92
2023/06/04 04:04:53;;;;;;;4.68;1.73;;;;;;;9.07;100.00;101208.84;6241350;28;20045;-92
2023/06/04 04:07:56;;;;;;;3.03;1.50;;;;;;;9.05;100.00;101201.16;6249515;28;20036;-92
2023/06/04 04:11:02;;;;;;;2.15;1.55;;;;;;;9.06;100.00;101207.16;6238642;28;20353;-93
2023/06/04 04:14:04;;;;;;;2.75;1.63;;;;;;;9.06;100.00;101207.16;6253519;28;20406;-92
2023/06/04 04:17:07;;;;;;;3.67;1.77;;;;;;;9.04;100.00;101196.09;6248171;28;20047;-92
2023/06/04 04:20:12;;;;;;;3.85;1.88;;;;;;;9.05;100.00;101205.50;6240808;28;20443;-92
2023/06/04 04:23:23;;;;;;;2.30;1.70;;;;;;;9.11;100.00;101204.28;6264525;28;20484;-92
2023/06/04 04:26:27;;;;;;;4.00;1.80;;;;;;;9.16;100.00;101205.66;6228937;28;20518;-92
2023/06/04 04:29:37;;;;;;;3.10;1.77;;;;;;;9.20;100.00;101209.72;6246597;28;20037;-92
2023/06/04 04:32:48;;;;;;;1.90;1.65;;;;;;;9.24;100.00;101205.19;6242255;28;20416;-93
2023/06/04 04:35:59;;;;;;;3.95;2.15;;;;;;;9.27;100.00;101208.41;6244935;28;20048;-93
2023/06/04 04:39:01;;;;;;;2.67;1.60;;;;;;;9.35;100.00;101215.69;6242905;28;20049;-93
2023/06/04 04:42:07;;;;;;;1.73;1.60;;;;;;;9.40;100.00;101211.06;6250132;28;20060;-92
2023/06/04 04:45:10;;;;;;;2.10;1.80;;;;;;;9.35;100.00;101205.34;6250048;28;20041;-93
2023/06/04 04:48:12;;;;;;;5.60;2.00;;;;;;;9.44;100.00;101214.25;6243828;28;20418;-93
2023/06/04 04:51:14;;;;;;;4.53;1.88;;;;;;;9.48;100.00;101202.81;6245516;28;20047;-93
2023/06/04 04:54:16;;;;;;;2.90;1.70;;;;;;;9.51;100.00;101207.78;6250424;28;20065;-92
2023/06/04 04:57:22;;;;;;;3.40;1.77;;;;;;;9.58;100.00;101208.22;6246947;28;20041;-93
2023/06/04 05:00:26;;;;;;;1.90;1.70;;;;;;;9.63;100.00;101204.41;6225652;28;20049;-93
2023/06/04 05:03:30;;;;;;;2.15;1.55;;;;;;;9.69;100.00;101210.97;6242057;28;20219;-93
2023/06/04 05:06:32;;;;;;;2.47;1.70;;;;;;;9.75;100.00;101214.91;6245266;28;20045;-93
2023/06/04 05:09:34;;;;;;;1.63;1.52;;;;;;;9.75;100.00;101204.56;6249491;28;20046;-93
2023/06/04 05:12:37;;;;;;;2.15;1.58;;;;;;;9.81;100.00;101204.16;6246299;28;20061;-93
2023/06/04 05:15:42;;;;;;;2.15;1.65;;;;;;;9.86;100.00;101213.31;6245423;28;20144;-93
2023/06/04 05:18:46;;;;;;;2.97;1.92;;;;;;;9.92;100.00;101219.81;6241990;28;20065;-93
2023/06/04 05:21:53;;;;;;;2.90;1.67;;;;;;;9.97;100.00;101220.34;6247868;28;20052;-93
2023/06/04 05:24:59;;;;;;;1.88;1.55;;;;;;;10.00;100.00;101221.91;6244298;28;20042;-93
2023/06/04 05:28:01;;;;;;;1.67;1.58;;;;;;;10.09;100.00;101216.97;6239558;28;20045;-93
2023/06/04 05:31:04;;;;;;;2.60;1.80;;;;;;;10.18;100.00;101222.44;6245280;28;20045;-93
2023/06/04 05:34:08;;;;;;;2.50;2.00;;;;;;;10.25;100.00;101229.69;6251041;28;20529;-93
2023/06/04 05:37:16;;;;;;;1.83;1.63;;;;;;;10.35;100.00;101224.78;6250738;28;20132;-93
2023/06/04 05:40:18;;;;;;;2.55;1.98;;;;;;;10.44;100.00;101231.94;6268119;28;20081;-93
2023/06/04 05:43:21;;;;;;;3.15;1.70;;;;;;;10.53;100.00;101227.88;6234790;28;20049;-94
2023/06/04 05:46:23;;;;;;;3.13;1.88;;;;;;;10.65;100.00;101236.59;6237535;28;20045;-93
2023/06/04 05:49:27;;;;;;;1.58;1.48;;;;;;;10.71;100.00;101231.84;6251135;28;20183;-93
2023/06/04 05:52:36;;;;;;;2.85;1.98;;;;;;;10.75;100.00;101235.03;6255175;28;20057;-94
2023/06/04 05:55:42;;;;;;;;;;;;;;;10.83;100.00;101232.75;6244093;28;20077;-93
2023/06/04 05:58:44;;;;;;;1.70;1.50;;;;;;;10.91;100.00;101234.81;6260541;28;20382;-93
2023/06/04 06:01:47;;;;;;;1.77;1.60;;;;;;;11.06;100.00;101240.69;6251980;28;20056;-93
2023/06/04 06:04:50;;;;;;;2.30;1.80;;;;;;;11.15;100.00;101234.84;6250423;28;20034;-93
2023/06/04 06:07:52;;;;;;;2.88;1.60;;;;;;;11.21;100.00;101239.63;6248673;28;20046;-93
2023/06/04 06:10:54;;;;;;;1.77;1.67;;;;;;;11.28;100.00;101246.03;6249846;28;20041;-93
2023/06/04 06:13:56;;;;;;;2.42;1.60;;;;;;;11.35;100.00;101243.81;6241933;28;20049;-94
2023/06/04 06:16:58;;;;;;;3.88;1.83;;;;;;;11.42;100.00;101245.06;6233193;28;20041;-93
2023/06/04 06:20:01;;;;;;;2.80;1.85;;;;;;;11.53;100.00;101246.91;6244832;28;20055;-93
2023/06/04 06:23:07;;;;;;;2.47;1.77;;;;;;;11.60;100.00;101250.69;6245574;28;20041;-93
2023/06/04 06:26:13;;;;;;;3.15;1.83;;;;;;;11.66;100.00;101246.84;6241671;28;20053;-93
2023/06/04 06:29:21;;;;;;;3.00;1.70;;;;;;;11.73;100.00;101250.66;6238456;28;20050;-93
2023/06/04 06:32:24;;;;;;;2.03;1.67;;;;;;;11.80;100.00;101255.28;6235356;28;20842;-93
2023/06/04 06:35:27;;;;;;;2.28;1.50;;;;;;;11.90;100.00;101254.63;6248730;28;20072;-93
2023/06/04 06:38:29;;;;;;;1.90;1.70;;;;;;;11.95;100.00;101253.38;6247163;28;20084;-93
2023/06/04 06:41:31;;;;;;;5.07;1.50;;;;;;;12.03;100.00;101258.00;6245950;28;20037;-93
2023/06/04 06:44:33;;;;;;;3.65;1.80;;;;;;;12.06;100.00;101261.19;6243425;28;20120;-93
2023/06/04 06:47:35;;;;;;;3.15;1.70;;;;;;;12.14;100.00;101263.22;6249420;28;20072;-93
2023/06/04 06:50:37;;;;;;;2.85;1.65;;;;;;;12.22;100.00;101258.31;6242606;28;20053;-93
2023/06/04 06:53:39;;;;;;;2.10;1.90;;;;;;;12.31;100.00;101266.34;6254314;28;20047;-93
2023/06/04 06:56:41;;;;;;;3.17;1.60;;;;;;;12.45;100.00;101272.16;6263199;28;20038;-93
2023/06/04 06:59:43;;;;;;;3.85;1.63;;;;;;;12.60;100.00;101269.34;6253590;28;20038;-93
2023/06/04 07:02:45;;;;;;;3.67;1.50;;;;;;;12.75;100.00;101273.38;6244461;28;20116;-93
2023/06/04 07:05:47;;;;;;;1.98;1.67;;;;;;;12.82;100.00;101271.97;6236582;28;20056;-93
2023/06/04 07:08:52;;;;;;;4.13;2.08;;;;;;;12.91;100.00;101270.44;6255407;28;20068;-93
2023/06/04 07:11:54;;;;;;;2.67;1.75;;;;;;;13.03;100.00;101268.66;6239031;28;20033;-93
2023/06/04 07:14:56;;;;;;;3.47;1.90;;;;;;;13.10;100.00;101270.66;6245267;28;20048;-93
2023/06/04 07:17:58;;;;;;;3.03;1.70;;;;;;;13.26;100.00;101270.28;6244309;28;20172;-94
2023/06/04 07:21:00;;;;;;;2.25;1.85;;;;;;;13.44;100.00;101280.22;6242051;28;20038;-93
2023/06/04 07:24:02;;;;;;;2.42;1.50;;;;;;;13.61;100.00;101278.88;6239302;28;20037;-94
2023/06/04 07:27:13;;;;;;;1.75;1.50;;;;;;;13.79;100.00;101265.22;6235124;28;20124;-93
2023/06/04 07:30:15;;;;;;;3.30;1.80;;;;;;;13.82;100.00;101261.56;6261683;28;20768;-94
2023/06/04 07:33:17;;;;;;;3.10;1.73;;;;;;;13.96;100.00;101266.47;6246311;28;20601;-94
2023/06/04 07:36:20;;;;;;;3.83;1.95;;;;;;;13.97;100.00;101262.09;6248617;28;20032;-94
2023/06/04 07:39:22;;;;;;;2.92;1.95;;;;;;;13.98;100.00;101266.34;6244355;28;20037;-94
2023/06/04 07:42:26;;;;;;;2.55;1.65;;;;;;;14.14;100.00;101276.34;6250198;28;20048;-93
2023/06/04 07:45:30;;;;;;;2.53;1.52;;;;;;;14.26;100.00;101270.13;6248342;28;20318;-93
2023/06/04 07:48:36;;;;;;;6.10;1.75;;;;;;;14.37;100.00;101283.06;6245632;28;20118;-94
2023/06/04 07:51:38;;;;;;;4.40;1.70;;;;;;;14.44;100.00;101276.41;6248758;28;20120;-94
2023/06/04 07:54:41;;;;;;;2.92;1.70;;;;;;;14.62;100.00;101278.44;6246419;28;20115;-94
2023/06/04 07:57:43;;;;;;;3.45;1.80;;;;;;;14.79;100.00;101283.06;6244760;28;20373;-94
2023/06/04 08:00:45;;;;;;;4.50;1.90;;;;;;;14.86;100.00;101278.97;6245129;28;20044;-93
2023/06/04 08:03:47;;;;;;;4.63;2.05;;;;;;;14.98;100.00;101278.88;6247599;28;20049;-94
2023/06/04 08:06:49;;;;;;;2.33;1.60;;;;;;;15.03;100.00;101279.31;6248012;28;20039;-94
2023/06/04 08:09:52;;;;;;;3.22;1.63;;;;;;;15.06;100.00;101281.66;6247089;28;20504;-94
2023/06/04 08:12:54;;;;;;;4.15;1.63;;;;;;;15.10;100.00;101277.00;6240509;28;20239;-93
2023/06/04 08:15:56;;;;;;;4.10;1.60;;;;;;;15.18;100.00;101272.78;6234788;28;20045;-93
2023/06/04 08:18:58;;;;;;;3.63;1.60;;;;;;;15.32;100.00;101278.59;6239473;28;20037;-92
2023/06/04 08:22:00;;;;;;;2.42;1.80;;;;;;;15.45;100.00;101285.22;6257948;28;20041;-93
2023/06/04 08:25:03;;;;;;;3.42;1.70;;;;;;;15.55;100.00;101290.44;6231031;28;20072;-93
2023/06/04 08:28:05;;;;;;;3.22;1.40;;;;;;;15.66;100.00;101287.72;6248015;28;20041;-93
2023/06/04 08:31:07;;;;;;;2.88;1.48;;;;;;;15.76;100.00;101284.31;6248137;28;20084;-93
2023/06/04 08:34:12;;;;;;;3.25;1.60;;;;;;;15.84;100.00;101287.06;6245675;28;20663;-93
2023/06/04 08:37:15;;;;;;;2.67;1.40;;;;;;;15.94;100.00;101287.91;6237436;28;20220;-93
2023/06/04 08:40:17;;;;;;;3.58;1.83;;;;;;;16.01;100.00;101283.78;6238600;28;20033;-92
2023/06/04 08:43:19;;;;;;;2.45;1.25;;;;;;;16.08;100.00;101294.50;6241252;28;20045;-93
2023/06/04 08:46:21;;;;;;;3.78;1.20;;;;;;;16.15;100.00;101287.78;6244053;28;20044;-93
2023/06/04 08:49:25;;;;;;;3.95;1.55;;;;;;;16.28;100.00;101293.53;6249415;28;20040;-92
2023/06/04 08:52:27;;;;;;;4.00;1.73;;;;;;;16.47;100.00;101291.81;6252367;28;20044;-92
2023/06/04 08:55:30;;;;;;;3.97;1.48;;;;;;;16.67;100.00;101296.06;6243964;28;20049;-93
2023/06/04 08:58:35;;;;;;;1.92;1.20;;;;;;;16.93;100.00;101301.50;6249459;28;20212;-92
2023/06/04 09:01:37;;;;;;;1.60;1.02;;;;;;;16.97;90.08;101300.25;6241558;28;20049;-92
2023/06/04 09:04:42;;;;;;;4.03;1.20;;;;;;;16.96;83.39;101303.81;6240417;28;20036;-92
2023/06/04 09:07:44;;;;;;;0.98;0.85;;;;;;;16.97;84.55;101294.22;6249246;28;20049;-92
2023/06/04 09:10:49;;;;;;;2.13;1.20;;;;;;;17.03;83.34;101292.81;6224915;28;20073;-89
2023/06/04 09:13:51;;;;;;;3.08;1.10;;;;;;;17.18;83.37;101296.59;6244744;28;20537;-92
2023/06/04 09:16:55;;;;;;;2.58;1.00;;;;;;;17.29;76.37;101293.78;6263390;28;20029;-92
2023/06/04 09:19:57;;;;;;;3.30;1.30;;;;;;;17.42;81.38;101288.19;6248498;28;20052;-92
2023/06/04 09:22:59;;;;;;;1.92;1.00;;;;;;;17.68;79.62;101293.50;6244682;28;20045;-92
2023/06/04 09:26:12;;;;;;;1.88;1.38;;;;;;;17.87;83.54;101292.59;6245120;28;20046;-92
2023/06/04 09:29:15;;;;;;;1.52;1.23;;;;;;;18.02;81.55;101292.88;6225722;28;20042;-91
2023/06/04 09:32:43;;;;;;;4.25;1.13;;;;;;;18.19;74.38;101291.22;6244389;28;20054;-92
2023/06/04 09:35:56;;;;;;;2.45;1.00;;;;;;;18.33;73.81;101292.47;6251262;28;20057;-92
2023/06/04 09:38:58;;;;;;;1.73;1.00;;;;;;;18.37;70.68;101288.56;6213469;28;20075;-92
2023/06/04 09:42:01;;;;;;;2.08;1.20;;;;;;;18.41;69.05;101292.50;6245135;28;20048;-92
2023/06/04 09:45:05;;;;;;;0.95;0.95;;;;;;;18.58;67.85;101289.00;6241432;28;20120;-92
2023/06/04 09:48:07;;;;;;;1.02;0.90;;;;;;;18.54;61.60;101292.94;6238524;28;20045;-92
2023/06/04 09:51:19;;;;;;;2.97;1.20;;;;;;;18.46;59.47;101298.13;6248131;28;20042;-91
2023/06/04 09:54:21;;;;;;;2.33;0.90;;;;;;;18.41;58.04;101289.88;6256544;28;20494;-92
2023/06/04 09:57:23;;;;;;;3.65;1.30;;;;;;;18.50;62.61;101295.03;6254241;28;20037;-92
2023/06/04 10:00:29;;;;;;;2.85;1.17;;;;;;;18.69;63.88;101278.28;6248297;28;20065;-92
2023/06/04 10:03:36;;;;;;;3.50;1.08;;;;;;;18.83;60.41;101284.78;6252698;28;20042;-92
2023/06/04 10:06:39;;;;;;;4.05;1.10;;;;;;;19.03;56.90;101285.34;6251670;28;20076;-92
2023/06/04 10:09:45;;;;;;;1.60;1.40;;;;;;;19.15;58.54;101278.84;6252598;28;20037;-91
2023/06/04 10:12:52;;;;;;;3.50;1.40;;;;;;;19.21;53.60;101281.81;6246898;28;20090;-92
2023/06/04 10:15:58;;;;;;;1.83;1.13;;;;;;;19.29;52.87;101282.66;6233280;28;20550;-92
2023/06/04 10:19:00;;;;;;;2.05;1.10;;;;;;;19.42;55.80;101276.94;6245539;28;20586;-92
2023/06/04 10:22:03;;;;;;;2.63;0.95;;;;;;;19.53;52.15;101283.69;6253143;28;20041;-91
2023/06/04 10:25:06;;;;;;;2.80;1.00;;;;;;;19.57;50.30;101277.94;6246437;28;20067;-92
2023/06/04 10:28:08;;;;;;;2.17;1.23;;;;;;;19.60;45.59;101279.41;6249490;28;20205;-91
2023/06/04 10:31:11;;;;;;;2.55;0.95;;;;;;;19.58;47.09;101279.59;6261826;28;20495;-92
2023/06/04 10:34:14;;;;;;;1.05;0.90;;;;;;;19.64;46.37;101277.31;6247923;28;20498;-92
2023/06/04 10:37:29;;;;;;;1.30;1.20;;;;;;;19.68;51.14;101273.41;6247028;28;20150;-91
2023/06/04 10:40:33;;;;;;;3.00;1.10;;;;;;;19.79;52.50;101270.47;6235473;28;20033;-92
2023/06/04 10:43:34;;;;;;;2.03;1.17;;;;;;;19.92;50.83;101291.00;6244306;28;20219;-92
2023/06/04 10:46:42;;;;;;;2.38;1.20;;;;;;;19.98;48.45;101280.66;6249494;28;20037;-92
2023/06/04 10:49:45;;;;;;;1.10;0.98;;;;;;;20.03;46.50;101280.16;6250944;28;20037;-91
2023/06/04 10:52:54;;;;;;;2.05;1.13;;;;;;;20.09;49.02;101283.94;6241282;28;20168;-91
2023/06/04 10:55:56;;;;;;;2.38;1.00;;;;;;;20.09;46.36;101274.22;6257339;28;20048;-91
2023/06/04 10:58:59;;;;;;;2.78;1.15;;;;;;;20.05;44.77;101279.97;6252422;28;20075;-91
2023/06/04 11:02:08;;;;;;;1.95;1.30;;;;;;;20.07;48.36;101278.00;6250976;28;20126;-91
2023/06/04 11:05:11;;;;;;;1.17;1.00;;;;;;;20.22;46.75;101278.97;6250496;28;20049;-91
2023/06/04 11:08:14;;;;;;;4.53;1.42;;;;;;;20.36;47.43;101277.50;6241131;28;20064;-91
2023/06/04 11:11:16;;;;;;;2.33;0.98;;;;;;;20.48;52.75;101265.66;6241919;28;20049;-91
2023/06/04 11:14:20;;;;;;;2.72;1.25;;;;;;;20.71;51.99;101278.09;6252282;28;20083;-91
2023/06/04 11:17:22;;;;;;;1.30;0.90;;;;;;;20.89;49.00;101267.34;6246802;28;20374;-91
2023/06/04 11:20:27;;;;;;;1.67;1.15;;;;;;;21.12;45.89;101264.78;6238655;28;20055;-91
2023/06/04 11:23:37;;;;;;;1.83;1.10;;;;;;;21.30;52.31;101271.44;6238244;28;20341;-91
2023/06/04 11:26:42;;;;;;;1.90;1.20;;;;;;;21.42;48.55;101256.09;6235356;28;20045;-91
2023/06/04 11:29:58;;;;;;;1.13;0.90;;;;;;;21.55;46.08;101263.41;6235910;28;20045;-91
2023/06/04 11:33:06;;;;;;;4.55;1.20;;;;;;;21.65;44.56;101250.81;6244127;28;20042;-91
2023/06/04 11:36:11;;;;;;;2.03;0.90;;;;;;;21.69;42.66;101254.75;6241346;28;20056;-91
2023/06/04 11:39:16;;;;;;;2.00;1.10;;;;;;;21.71;41.47;101250.13;6237804;28;20069;-91
2023/06/04 11:42:22;;;;;;;1.10;0.95;;;;;;;21.87;47.99;101243.88;6237055;28;20041;-91
2023/06/04 11:45:25;;;;;;;2.00;1.20;;;;;;;;;;6243059;28;20040;-91
2023/06/04 11:48:34;;;;;;;2.33;1.20;;;;;;;22.39;46.55;101244.09;6237914;28;20479;-90
2023/06/04 11:51:47;;;;;;;6.80;1.77;;;;;;;22.70;46.37;101233.34;6222163;28;20037;-90
2023/06/04 11:54:55;;;;;;;1.98;1.00;;;;;;;22.98;45.92;101233.50;6231157;28;20052;-91
2023/06/04 11:58:00;;;;;;;1.23;1.13;;;;;;;23.24;45.93;101243.56;6236756;28;20400;-91
2023/06/04 12:01:06;;;;;;;3.75;1.70;;;;;;;23.46;45.27;101246.22;6232838;28;20356;-91
2023/06/04 12:04:17;;;;;;;2.70;1.02;;;;;;;23.57;41.74;101245.69;6240505;28;20450;-91
2023/06/04 12:07:26;;;;;;;2.00;1.52;;;;;;;23.75;39.54;101245.28;6240916;28;20479;-91
2023/06/04 12:10:28;;;;;;;5.15;1.75;;;;;;;23.78;40.68;101229.88;6240940;28;20045;-90
2023/06/04 12:13:37;;;;;;;2.22;1.17;;;;;;;23.75;41.42;101230.25;6232135;28;20037;-91
2023/06/04 12:16:41;;;;;;;1.88;1.00;;;;;;;24.01;44.09;101234.09;6249249;28;20045;-91
2023/06/04 12:19:53;;;;;;;1.30;1.00;;;;;;;24.29;42.27;101232.25;6237669;28;20045;-91
2023/06/04 12:22:57;;;;;;;4.03;1.20;;;;;;;24.49;41.78;101232.38;6240631;28;20052;-91
2023/06/04 12:26:03;;;;;;;1.38;1.08;;;;;;;24.61;42.86;101232.66;6249005;28;20037;-92
2023/06/04 12:29:13;;;;;;;2.17;1.27;;;;;;;24.71;41.41;101230.47;6235956;28;20053;-91
2023/06/04 12:32:23;;;;;;;2.67;1.33;;;;;;;24.92;44.00;101234.03;6242984;28;20136;-92
2023/06/04 12:35:30;;;;;;;0.80;0.80;;;;;;;24.92;37.88;101234.84;6226162;28;20506;-91
2023/06/04 12:38:34;;;;;;;1.20;1.00;;;;;;;24.81;38.64;101229.28;6249929;28;20050;-91
2023/06/04 12:41:47;;;;;;;1.20;0.95;;;;;;;24.84;39.40;101229.69;6233181;28;20061;-91
2023/06/04 12:44:51;;;;;;;2.72;1.02;;;;;;;24.98;41.23;101222.63;6247850;28;20403;-90
2023/06/04 12:47:59;;;;;;;1.13;1.02;;;;;;;25.27;40.14;101226.81;6231867;28;20188;-91
2023/06/04 12:51:11;;;;;;;2.53;1.08;;;;;;;25.45;40.06;101223.56;6238643;28;20194;-91
2023/06/04 12:54:16;;;;;;;2.63;1.10;;;;;;;25.68;43.71;101227.66;6240574;28;20033;-91
2023/06/04 12:57:17;;;;;;;2.38;1.20;;;;;;;25.83;41.13;101225.59;6251924;28;20037;-91
2023/06/04 13:00:19;;;;;;;1.33;1.10;;;;;;;25.89;39.17;101227.47;6242614;28;20041;-91
2023/06/04 13:03:21;;;;;;;2.10;1.10;;;;;;;26.11;39.59;101219.28;6238893;28;20056;-92
2023/06/04 13:06:23;;;;;;;1.88;0.93;;;;;;;26.21;42.71;101223.16;6220769;28;20045;-92
2023/06/04 13:09:28;;;;;;;2.03;1.10;;;;;;;26.15;39.01;101215.19;6236603;28;20041;-91
2023/06/04 13:12:33;;;;;;;1.73;1.20;;;;;;;26.24;41.12;101213.94;6203538;28;20400;-91
2023/06/04 13:15:35;;;;;;;1.30;1.20;;;;;;;26.32;38.53;101213.72;6228158;28;20052;-92
2023/06/04 13:18:37;;;;;;;1.55;1.10;;;;;;;26.26;36.96;101216.38;6204769;28;20038;-91
2023/06/04 13:21:39;;;;;;;2.25;1.13;;;;;;;26.15;36.72;101205.38;6237303;28;20046;-92
2023/06/04 13:24:41;;;;;;;1.33;0.80;;;;;;;25.94;38.83;101209.09;6238041;28;20842;-91
2023/06/04 13:27:44;;;;;;;1.45;1.00;;;;;;;26.21;38.41;101211.72;6237655;28;20056;-91
2023/06/04 13:30:46;;;;;;;1.90;1.10;;;;;;;26.35;36.53;101202.69;6244775;28;20044;-91
2023/06/04 13:33:48;;;;;;;5.82;1.05;;;;;;;26.37;38.14;101208.59;6245211;28;20068;-92
2023/06/04 13:36:50;;;;;;;1.25;0.95;;;;;;;26.56;35.87;101206.13;6236574;28;20439;-91
2023/06/04 13:39:52;;;;;;;2.00;1.10;;;;;;;26.61;36.21;101206.31;6247325;28;20248;-91
2023/06/04 13:42:53;;;;;;;1.38;1.10;;;;;;;26.69;37.55;101200.75;6238581;28;20330;-91
2023/06/04 13:45:55;;;;;;;3.15;1.33;;;;;;;26.87;35.87;101197.38;6249434;28;20044;-91
2023/06/04 13:48:57;;;;;;;3.25;1.20;;;;;;;27.06;35.80;101201.78;6236438;28;20220;-91
2023/06/04 13:51:59;;;;;;;1.55;1.02;;;;;;;27.31;34.66;101189.59;6247474;28;20045;-91
2023/06/04 13:55:01;;;;;;;2.58;1.35;;;;;;;27.49;34.96;101181.66;6247945;28;21119;-91
2023/06/04 13:58:02;;;;;;;2.05;1.50;;;;;;;27.60;36.20;101185.44;6248744;28;20033;-90
2023/06/04 14:01:05;;;;;;;2.38;1.20;;;;;;;27.80;37.58;101190.59;6247117;28;20626;-91
2023/06/04 14:04:07;;;;;;;3.25;1.17;;;;;;;27.90;34.85;101185.59;6233387;28;20045;-91
2023/06/04 14:07:09;;;;;;;1.00;0.90;;;;;;;27.94;33.49;101181.47;6246584;28;20482;-91
2023/06/04 14:10:11;;;;;;;1.95;1.00;;;;;;;27.91;35.16;101184.59;6250070;28;20120;-91
2023/06/04 14:13:13;;;;;;;1.00;0.90;;;;;;;27.89;32.47;101178.66;6242805;28;20037;-91